Levittown, PR

7:27 AM AST on February 14, 2016 (GMT -0400)
KP4MP DAVIS | | Change Station
CLOSE
Current Station
Personal Weather Station
Location: Sabana Seca, TOA BAJA
Elevation: 17 ft
Nearby Weather Stations

Elev 17 ft 18.44 °N, 66.18 °W | Updated 11 seconds ago

Overcast
Overcast
71.4 °F
Feels Like 71.4 °F
N
0.0
Wind Variable Wind from South
Gusts 0.0 mph

Today
High -- | Low -- °F
--% Chance of Precip.
Yesterday
High -- | Low -- °F
Precip. -- in
Pressure 29.99 in
Visibility 10.0 miles
Clouds Overcast 5000 ft
Dew Point 67 °F
Humidity 87%
Rainfall 0.00 in
Snow Depth Not available.
6:53 AM 6:24 PM
Waxing Crescent, 40% visible
METAR TJSJ 141056Z 15004KT 10SM OVC050 22/19 A2999 RMK AO2 SLP156 VCSH S T02220194
Pressure 29.99 in
Visibility 10.0 miles
Clouds Overcast 5000 ft
Dew Point 67 °F
Humidity 87%
Rainfall 0.00 in
Snow Depth Not available.
6:53 AM 6:24 PM
Waxing Crescent, 40% visible
METAR TJSJ 141056Z 15004KT 10SM OVC050 22/19 A2999 RMK AO2 SLP156 VCSH S T02220194

10-Day Weather Forecast

Almanac

Astronomy

Feb. 14, 2016 Rise Set
Actual Time
Civil Twilight
Nautical Twilight
Astronomical Twilight
Moon
Length of Visible Light
Length of Day
Tomorrow will be .
, % of the Moon is Illuminated

Today's Extremes

State Highs State Lows

Community

WunderPhotos

Upload Photos

1,892,766 photos uploaded!

WunderBlog® & News

Nearby

Air Quality

  Air Quality AQ Index Pollutant
Not available.

Snow Depth

Station Depth Elevation

Earthquake Activity

City Distance Mag. Time & Date
Minimum magnitude displayed is 2.5.

Coastal Water Temperatures

Place Temperature

Stations

Nearby Weather Stations

Station Location Temp. Windchill Dew Point Humidity Wind Precip. Elev Updated Type
                   

Watches & Warnings

There are currently no watches in effect.